Dease Lake, Dease Lake Airport (CYDL)

NameDease Lake Airport
CityDease Lake
CountryCanada
ICAOCYDL
IATAYDL
Altitude803 m
CoordinatesGoogle Map
Live Air TrafficLiveATC.net
METARCYDL 211800Z AUTO VRB05KT 9SM FEW047 05/M06 A2982 RMK SLP120
2019-04-21 18:00:00 Wind: North (0°) 2.57 m/s - Visibility: 14484.06 m - Temperature: 5 °C - Dew point: -6 °C - Humidity: 45.2% - Pressure: 1009.82 hPa
Statistics

The table below shows the detailed information of all flights to/from Dease Lake, Dease Lake Airport (CYDL).